Time;durP1;ratioP1;P1;durP2;ratioP2;P2;SDS_P1;SDS_P2;PMS_P1;PMS_P2;Temp;Humidity;BMP_temperature;BMP_pressure;BME280_temperature;BME280_humidity;BME280_pressure;Samples;Min_cycle;Max_cycle;Signal;HPM_P1;HPM_P2
2021/03/11 00:00:48;;;;;;;111.43;58.40;;;;;;;-4.10;66.37;99316.43;123367;1102;64994;-76
2021/03/11 00:03:17;;;;;;;113.37;56.43;;;;;;;-4.11;66.79;99315.54;123447;1102;64966;-75
2021/03/11 00:05:44;;;;;;;109.93;55.30;;;;;;;-4.11;65.88;99314.68;123833;1102;64937;-75
2021/03/11 00:08:10;;;;;;;109.73;56.33;;;;;;;-4.13;66.31;99311.20;123759;1102;64885;-76
2021/03/11 00:10:38;;;;;;;97.47;51.67;;;;;;;-4.11;66.12;99307.73;123828;1101;64940;-77
2021/03/11 00:13:07;;;;;;;98.03;52.90;;;;;;;-4.11;66.72;99314.68;123796;1102;64876;-75
2021/03/11 00:15:35;;;;;;;97.40;49.85;;;;;;;-4.12;66.41;99307.75;123823;1102;64914;-76
2021/03/11 00:18:03;;;;;;;87.67;49.40;;;;;;;-4.17;65.95;99314.70;123746;1102;64991;-75
2021/03/11 00:20:31;;;;;;;97.97;48.80;;;;;;;-4.18;66.53;99313.84;123800;1101;65242;-75
2021/03/11 00:22:57;;;;;;;87.85;48.10;;;;;;;-4.17;66.13;99307.76;123842;1102;64844;-76
2021/03/11 00:25:26;;;;;;;84.60;48.10;;;;;;;-4.21;66.42;99301.70;123763;1102;65288;-76
2021/03/11 00:27:53;;;;;;;89.97;49.03;;;;;;;-4.21;66.72;99312.12;123778;1102;64914;-76
2021/03/11 00:30:21;;;;;;;94.25;49.85;;;;;;;-4.22;66.50;99304.30;123781;1102;64911;-75
2021/03/11 00:32:48;;;;;;;89.80;46.77;;;;;;;-4.26;66.63;99308.66;123465;1102;64971;-76
2021/03/11 00:35:15;;;;;;;88.60;47.70;;;;;;;-4.26;66.71;99306.05;123389;1101;64975;-76
2021/03/11 00:37:43;;;;;;;81.07;47.23;;;;;;;-4.28;66.44;99301.72;123796;1102;64912;-75
2021/03/11 00:40:12;;;;;;;91.20;48.83;;;;;;;-4.27;66.11;99303.45;123850;1102;64873;-75
2021/03/11 00:42:39;;;;;;;91.82;49.67;;;;;;;-4.30;66.46;99303.45;123421;1105;64905;-76
2021/03/11 00:45:08;;;;;;;98.73;49.63;;;;;;;-4.35;66.51;99295.66;123845;1102;64831;-75
2021/03/11 00:47:35;;;;;;;92.80;50.57;;;;;;;-4.39;66.17;99293.95;123827;1102;64877;-76
2021/03/11 00:50:04;;;;;;;97.70;52.37;;;;;;;-4.44;66.27;99301.75;123742;1102;65389;-76
2021/03/11 00:52:30;;;;;;;90.20;49.80;;;;;;;-4.49;66.55;99302.63;123800;1102;64886;-76
2021/03/11 00:54:57;;;;;;;93.73;51.00;;;;;;;-4.54;66.88;99302.63;123436;1102;64937;-76
2021/03/11 00:57:23;;;;;;;91.10;50.75;;;;;;;-4.52;66.94;99293.09;123780;1102;64937;-74
2021/03/11 00:59:49;;;;;;;89.77;49.30;;;;;;;-4.49;67.12;99290.48;123418;1102;64896;-76
2021/03/11 01:02:16;;;;;;;94.07;51.33;;;;;;;-4.50;67.35;99291.37;123765;1102;65059;-75
2021/03/11 01:04:42;;;;;;;98.50;51.03;;;;;;;-4.54;67.04;99296.56;123430;1102;64937;-75
2021/03/11 01:07:09;;;;;;;98.20;52.37;;;;;;;-4.56;67.56;99303.50;123789;1102;65343;-76
2021/03/11 01:09:37;;;;;;;86.97;47.20;;;;;;;-4.57;66.93;99296.58;123793;1102;65390;-76
2021/03/11 01:12:03;;;;;;;89.57;49.27;;;;;;;-4.55;67.23;99298.30;123761;1102;64854;-76
2021/03/11 01:14:30;;;;;;;100.37;51.93;;;;;;;-4.54;67.48;99289.63;123381;1102;64968;-74
2021/03/11 01:16:56;;;;;;;93.27;50.47;;;;;;;-4.51;67.58;99287.02;123745;1102;64832;-76
2021/03/11 01:19:22;;;;;;;97.03;51.87;;;;;;;-4.52;67.36;99289.63;123790;1102;64908;-76
2021/03/11 01:21:48;;;;;;;87.87;48.77;;;;;;;-4.54;67.80;99293.97;123823;1102;64994;-76
2021/03/11 01:24:15;;;;;;;95.23;51.80;;;;;;;-4.52;66.97;99285.30;123779;1102;64931;-75
2021/03/11 01:26:42;;;;;;;96.65;53.30;;;;;;;-4.52;67.28;99282.69;123785;1102;65039;-75
2021/03/11 01:29:08;;;;;;;94.97;51.67;;;;;;;-4.50;67.26;99272.27;123446;1102;64939;-76
2021/03/11 01:31:35;;;;;;;92.03;52.87;;;;;;;-4.59;67.23;99278.36;123772;1102;64892;-76
2021/03/11 01:34:01;;;;;;;94.57;54.57;;;;;;;-4.59;67.71;99272.30;123795;1102;65014;-75
2021/03/11 01:36:28;;;;;;;100.10;51.67;;;;;;;-4.63;67.75;99268.85;123436;1102;64918;-75
2021/03/11 01:38:54;;;;;;;93.03;51.87;;;;;;;-4.67;68.27;99270.56;123444;1102;65451;-75
2021/03/11 01:41:21;;;;;;;100.30;55.90;;;;;;;-4.69;68.27;99263.63;123842;1102;64878;-75
2021/03/11 01:43:48;;;;;;;108.87;57.67;;;;;;;-4.72;67.75;99258.45;123803;1102;64990;-76
2021/03/11 01:46:15;;;;;;;103.73;55.77;;;;;;;-4.71;68.32;99265.39;123860;1101;64863;-76
2021/03/11 01:48:41;;;;;;;91.20;52.77;;;;;;;-4.73;68.44;99251.53;123806;1102;64885;-74
2021/03/11 01:51:08;;;;;;;99.27;55.40;;;;;;;-4.76;68.23;99249.80;123424;1102;65148;-76
2021/03/11 01:53:35;;;;;;;92.40;53.85;;;;;;;-4.78;68.45;99248.06;123799;1102;64885;-75
2021/03/11 01:56:01;;;;;;;100.20;53.25;;;;;;;-4.79;68.34;99248.91;123779;1102;64982;-75
2021/03/11 01:58:28;;;;;;;88.70;51.23;;;;;;;-4.81;68.95;99246.33;123815;1102;64933;-76
2021/03/11 02:00:54;;;;;;;93.87;51.43;;;;;;;-4.82;68.98;99244.58;123803;1101;64962;-76
2021/03/11 02:03:21;;;;;;;100.45;54.50;;;;;;;-4.82;68.71;99230.72;123735;1102;64974;-76
2021/03/11 02:05:47;;;;;;;104.00;56.10;;;;;;;-4.85;68.36;99237.65;123811;1102;64984;-76
2021/03/11 02:08:14;;;;;;;96.57;53.47;;;;;;;-4.86;69.44;99224.67;123815;1102;64886;-76
2021/03/11 02:10:42;;;;;;;96.47;54.77;;;;;;;-4.88;68.75;99222.06;123780;1102;64988;-76
2021/03/11 02:13:24;;;;;;;97.20;52.23;;;;;;;-4.91;68.88;99219.47;123805;1102;64837;-76
2021/03/11 02:16:03;;;;;;;103.30;55.57;;;;;;;-4.94;69.52;99216.88;123782;1102;64869;-77
2021/03/11 02:18:45;;;;;;;99.20;55.13;;;;;;;-4.96;69.20;99213.41;123438;1102;64997;-76
2021/03/11 02:21:13;;;;;;;102.60;53.10;;;;;;;-4.97;69.49;99208.23;123782;1102;64891;-76
2021/03/11 02:24:11;;;;;;;94.17;52.90;;;;;;;-5.00;68.87;99208.21;123432;1102;64963;-75
2021/03/11 02:27:08;;;;;;;95.57;51.80;;;;;;;-5.02;69.55;99204.77;123765;1102;65317;-75
2021/03/11 02:29:41;;;;;;;100.77;55.10;;;;;;;-5.04;69.30;99196.11;123806;1102;65065;-77
2021/03/11 02:32:11;;;;;;;92.65;51.45;;;;;;;-5.07;69.35;99187.44;123755;1102;64905;-76
2021/03/11 02:34:42;;;;;;;93.47;54.03;;;;;;;-5.09;69.77;99178.77;123712;1102;64934;-77
2021/03/11 02:37:14;;;;;;;95.15;52.40;;;;;;;-5.11;69.01;99180.53;123410;1102;64953;-76
2021/03/11 02:39:52;;;;;;;100.60;55.20;;;;;;;-5.10;69.34;99173.59;123474;1102;64992;-77
2021/03/11 02:42:21;;;;;;;92.20;52.37;;;;;;;-5.12;69.45;99170.98;123802;1102;65027;-76
2021/03/11 02:44:48;;;;;;;86.60;51.90;;;;;;;-5.13;69.05;99177.06;123825;1102;64911;-75
2021/03/11 02:47:14;;;;;;;95.83;52.27;;;;;;;-5.14;69.40;99174.45;123749;1102;64844;-75
2021/03/11 02:49:43;;;;;;;101.23;54.63;;;;;;;-5.16;69.75;99170.98;123791;1102;64911;-76
2021/03/11 02:52:10;;;;;;;100.23;51.37;;;;;;;-5.15;69.43;99173.59;123821;1101;64889;-76
2021/03/11 02:54:37;;;;;;;95.20;53.03;;;;;;;-5.16;70.04;99166.68;123778;1102;64834;-76
2021/03/11 02:57:06;;;;;;;90.13;55.27;;;;;;;-5.17;69.84;99159.73;123797;1102;64966;-76
2021/03/11 02:59:35;;;;;;;89.73;51.83;;;;;;;-5.16;69.69;99153.69;123468;1102;65234;-75
2021/03/11 03:02:04;;;;;;;89.10;51.77;;;;;;;-5.15;69.94;99157.15;123827;1102;65395;-75
2021/03/11 03:04:32;;;;;;;93.00;52.40;;;;;;;-5.18;69.47;99150.22;123827;1102;64911;-75
2021/03/11 03:07:00;;;;;;;87.67;48.80;;;;;;;-5.20;69.40;99151.95;123412;1105;64920;-76
2021/03/11 03:09:28;;;;;;;95.93;53.47;;;;;;;-5.18;69.49;99154.56;123792;1101;64911;-76
2021/03/11 03:11:55;;;;;;;225.80;100.17;;;;;;;-5.16;69.95;99147.60;123733;1102;64863;-76
2021/03/11 03:14:23;;;;;;;223.15;100.40;;;;;;;-5.18;69.85;99137.23;123402;1102;64884;-76
2021/03/11 03:16:50;;;;;;;112.27;59.27;;;;;;;-5.16;69.70;99135.50;123443;1102;64997;-76
2021/03/11 03:19:18;;;;;;;98.53;51.10;;;;;;;-5.22;69.54;99129.44;123737;1102;64892;-76
2021/03/11 03:21:47;;;;;;;93.97;50.47;;;;;;;-5.24;70.09;99133.77;123421;1102;64889;-76
2021/03/11 03:24:19;;;;;;;93.47;51.37;;;;;;;-5.25;70.08;99126.84;123874;1102;64837;-76
2021/03/11 03:26:46;;;;;;;100.13;55.57;;;;;;;-5.25;69.48;99132.05;123846;1102;65013;-74
2021/03/11 03:29:12;;;;;;;96.25;54.00;;;;;;;-5.24;70.05;99137.25;123816;1102;64920;-76
2021/03/11 03:31:39;;;;;;;95.87;54.13;;;;;;;-5.21;70.14;99134.64;123747;1102;64884;-76
2021/03/11 03:34:06;;;;;;;87.37;50.37;;;;;;;-5.23;69.67;99136.37;123763;1102;65069;-75
2021/03/11 03:36:32;;;;;;;94.70;54.23;;;;;;;-5.25;69.73;99138.09;123768;1102;64893;-75
2021/03/11 03:38:59;;;;;;;92.20;50.40;;;;;;;-5.28;70.00;99135.52;123757;1102;64939;-75
2021/03/11 03:41:29;;;;;;;93.80;50.83;;;;;;;-5.26;70.13;99130.33;123425;1102;65001;-75
2021/03/11 03:43:55;;;;;;;;;;;;;;;-5.27;69.58;99128.58;123872;1101;64889;-76
2021/03/11 03:46:24;;;;;;;91.83;49.50;;;;;;;-5.29;69.99;99138.98;123846;1102;64934;-76
2021/03/11 03:48:57;;;;;;;77.27;48.20;;;;;;;-5.32;69.80;99137.26;123840;1102;64908;-77
2021/03/11 03:51:31;;;;;;;83.90;45.20;;;;;;;-5.34;70.25;99143.31;123841;1101;64879;-76
2021/03/11 03:54:06;;;;;;;89.13;47.47;;;;;;;-5.37;69.98;99138.09;123770;1102;64894;-75
2021/03/11 03:56:37;;;;;;;80.60;45.07;;;;;;;-5.39;69.76;99130.33;123415;1102;64911;-76
2021/03/11 03:59:14;;;;;;;83.67;46.60;;;;;;;-5.40;69.71;99125.13;123803;1102;64916;-76
2021/03/11 04:01:42;;;;;;;83.00;44.90;;;;;;;-5.41;69.36;99133.79;123787;1101;65346;-75
2021/03/11 04:04:13;;;;;;;89.40;47.07;;;;;;;-5.43;69.35;99133.78;123782;1102;65007;-75
2021/03/11 04:06:41;;;;;;;87.10;48.65;;;;;;;-5.41;70.05;99126.86;123817;1101;64857;-76
2021/03/11 04:09:12;;;;;;;83.20;46.30;;;;;;;-5.42;70.09;99122.55;123450;1102;65011;-76
2021/03/11 04:11:42;;;;;;;86.57;46.98;;;;;;;-5.42;70.45;99124.28;123453;1102;64959;-75
2021/03/11 04:14:10;;;;;;;86.63;47.97;;;;;;;-5.43;70.08;99120.80;123783;1102;64835;-75
2021/03/11 04:16:36;;;;;;;82.27;47.13;;;;;;;-5.43;70.14;99122.53;123796;1102;64907;-75
2021/03/11 04:19:05;;;;;;;85.17;47.13;;;;;;;-5.42;70.01;99116.48;123818;1102;64851;-75
2021/03/11 04:21:33;;;;;;;76.60;46.60;;;;;;;-5.43;69.75;99110.41;123782;1102;64898;-76
2021/03/11 04:24:00;;;;;;;76.17;44.13;;;;;;;-5.42;70.02;99093.98;123838;1102;64934;-76
2021/03/11 04:26:28;;;;;;;77.97;42.23;;;;;;;-5.40;70.24;99100.01;123387;1102;65455;-76
2021/03/11 04:28:55;;;;;;;71.97;43.73;;;;;;;-5.39;70.24;99093.11;123778;1102;65343;-76
2021/03/11 04:31:22;;;;;;;81.90;44.30;;;;;;;-5.41;70.61;99093.09;123771;1102;64901;-76
2021/03/11 04:33:49;;;;;;;79.20;44.23;;;;;;;-5.42;70.29;99093.98;123386;1102;64892;-75
2021/03/11 04:36:15;;;;;;;73.03;43.07;;;;;;;-5.41;69.92;99074.92;123800;1102;64834;-76
2021/03/11 04:38:42;;;;;;;80.43;43.77;;;;;;;-5.38;70.37;99066.26;123444;1102;64949;-76
2021/03/11 04:41:09;;;;;;;78.67;44.60;;;;;;;-5.38;70.34;99068.86;123770;1102;64850;-76
2021/03/11 04:43:39;;;;;;;81.00;45.55;;;;;;;-5.39;70.27;99075.79;123529;1102;65033;-76
2021/03/11 04:46:06;;;;;;;80.07;47.07;;;;;;;-5.39;69.97;99074.94;123810;1102;64942;-74
2021/03/11 04:48:33;;;;;;;78.93;43.47;;;;;;;-5.39;70.08;99072.33;123790;1102;64910;-77
2021/03/11 04:51:05;;;;;;;81.63;46.10;;;;;;;-5.38;70.60;99064.52;123768;1102;64988;-75
2021/03/11 04:53:35;;;;;;;78.37;42.10;;;;;;;-5.37;70.75;99066.27;123825;1102;65298;-76
2021/03/11 04:56:05;;;;;;;81.43;43.23;;;;;;;-5.32;70.22;99074.03;123378;1102;64949;-76
2021/03/11 04:58:32;;;;;;;81.15;42.90;;;;;;;-5.32;70.76;99068.83;123735;1102;65214;-75
2021/03/11 05:00:59;;;;;;;72.87;41.23;;;;;;;-5.28;70.49;99061.92;123742;1102;64926;-75
2021/03/11 05:03:26;;;;;;;68.50;38.83;;;;;;;-5.28;69.96;99061.92;123829;1102;64937;-76
2021/03/11 05:05:53;;;;;;;70.17;40.13;;;;;;;-5.25;70.61;99060.17;123788;1102;64848;-76
2021/03/11 05:08:19;;;;;;;65.50;38.20;;;;;;;-5.22;70.47;99059.30;123783;1102;64885;-75
2021/03/11 05:10:46;;;;;;;67.00;40.35;;;;;;;-5.19;69.94;99051.49;123767;1102;65005;-75
2021/03/11 05:13:12;;;;;;;64.20;36.87;;;;;;;-5.18;69.82;99055.84;123772;1102;64891;-75
2021/03/11 05:15:39;;;;;;;65.50;37.70;;;;;;;-5.17;69.83;99053.22;123806;1101;64860;-75
2021/03/11 05:18:06;;;;;;;73.20;38.13;;;;;;;-5.11;69.61;99055.81;123756;1102;64835;-75
2021/03/11 05:20:32;;;;;;;70.50;39.30;;;;;;;-5.05;70.00;99054.93;123386;1102;64918;-75
2021/03/11 05:22:58;;;;;;;64.83;37.70;;;;;;;-4.96;69.75;99060.08;123775;1102;64984;-75
2021/03/11 05:25:25;;;;;;;65.10;37.80;;;;;;;-4.90;69.56;99041.89;123451;1102;65022;-75
2021/03/11 05:27:51;;;;;;;71.30;38.80;;;;;;;-4.80;69.34;99039.23;123433;1102;64989;-75
2021/03/11 05:30:18;;;;;;;67.67;38.90;;;;;;;-4.68;69.06;99039.19;123795;1102;64934;-76
2021/03/11 05:32:44;;;;;;;73.60;39.47;;;;;;;-4.59;69.26;99041.72;123407;1102;64917;-78
2021/03/11 05:35:11;;;;;;;70.50;42.23;;;;;;;-4.53;69.37;99041.70;123400;1103;65096;-76
2021/03/11 05:37:39;;;;;;;67.57;39.23;;;;;;;-4.42;68.95;99034.70;123393;1102;64899;-76
2021/03/11 05:40:08;;;;;;;74.75;41.90;;;;;;;-4.31;68.65;99024.22;123785;1102;64908;-76
2021/03/11 05:42:36;;;;;;;;;;;;;;;-4.19;69.22;99018.05;123832;1102;64988;-76
2021/03/11 05:45:05;;;;;;;69.80;40.33;;;;;;;-4.07;68.99;99017.11;123787;1102;64907;-76
2021/03/11 05:47:34;;;;;;;70.55;39.67;;;;;;;-3.94;68.89;99017.88;123426;1102;65011;-76
2021/03/11 05:50:06;;;;;;;78.47;42.62;;;;;;;-3.84;68.22;99011.72;123852;1101;65020;-76
2021/03/11 05:52:33;;;;;;;69.87;40.87;;;;;;;-3.77;67.90;99011.63;123774;1102;64934;-76
2021/03/11 05:55:01;;;;;;;71.97;44.57;;;;;;;-3.64;68.08;99009.78;123870;1102;64883;-75
2021/03/11 05:57:28;;;;;;;80.07;43.20;;;;;;;-3.57;67.68;99005.39;123454;1102;64984;-75
2021/03/11 05:59:55;;;;;;;83.50;43.60;;;;;;;-3.48;68.33;99001.81;123802;1102;64981;-75
2021/03/11 06:02:26;;;;;;;75.50;41.57;;;;;;;-3.41;67.91;99003.48;123772;1102;64888;-75
2021/03/11 06:04:54;;;;;;;75.85;45.05;;;;;;;-3.32;67.00;98988.63;123810;1102;64908;-76
2021/03/11 06:07:25;;;;;;;77.20;43.93;;;;;;;-3.27;66.88;98991.16;123777;1102;64914;-77
2021/03/11 06:09:56;;;;;;;69.67;39.93;;;;;;;-3.21;66.89;98985.90;123785;1102;64908;-76
2021/03/11 06:12:24;;;;;;;66.37;38.20;;;;;;;-3.10;66.52;98972.73;123806;1102;65052;-75
2021/03/11 06:14:57;;;;;;;71.33;39.40;;;;;;;-3.04;67.01;98962.22;123786;1102;64889;-76
2021/03/11 06:17:28;;;;;;;65.13;36.47;;;;;;;-2.94;66.28;98956.01;123795;1102;64825;-75
2021/03/11 06:19:56;;;;;;;65.73;40.70;;;;;;;-2.84;66.43;98961.97;123783;1101;64924;-76
2021/03/11 06:22:22;;;;;;;66.03;38.43;;;;;;;-2.73;65.54;98960.07;123451;1102;65014;-76
2021/03/11 06:24:49;;;;;;;71.07;40.37;;;;;;;-2.66;65.45;98958.22;123735;1102;64875;-76
2021/03/11 06:27:15;;;;;;;63.07;39.50;;;;;;;-2.58;65.88;98953.78;123730;1102;64828;-75
2021/03/11 06:29:42;;;;;;;64.40;38.10;;;;;;;-2.47;65.52;98949.26;123762;1102;64885;-76
2021/03/11 06:32:09;;;;;;;68.97;39.70;;;;;;;-2.31;65.70;98949.88;123749;1102;64930;-76
2021/03/11 06:34:44;;;;;;;66.40;37.57;;;;;;;-2.15;65.80;98940.05;123415;1102;64888;-76
2021/03/11 06:37:12;;;;;;;59.27;38.60;;;;;;;-1.98;65.05;98947.59;123405;1102;64969;-75
2021/03/11 06:39:40;;;;;;;58.50;38.70;;;;;;;-1.88;65.30;98950.91;123759;1102;65010;-76
2021/03/11 06:42:09;;;;;;;63.67;38.67;;;;;;;-1.74;64.95;98948.05;123842;1102;64892;-75
2021/03/11 06:44:43;;;;;;;65.93;38.80;;;;;;;-1.59;64.51;98945.16;123773;1102;64914;-76
2021/03/11 06:47:10;;;;;;;70.30;42.87;;;;;;;-1.42;64.35;98944.83;123790;1102;64876;-77
2021/03/11 06:49:58;;;;;;;63.95;37.75;;;;;;;-1.22;64.04;98936.61;123787;1101;64838;-75
2021/03/11 06:52:25;;;;;;;64.40;39.40;;;;;;;-1.04;63.79;98937.98;123713;1102;64987;-75
2021/03/11 06:54:52;;;;;;;64.90;37.77;;;;;;;-0.96;63.39;98931.69;123795;1102;64892;-76
2021/03/11 06:57:31;;;;;;;67.87;42.20;;;;;;;-0.87;63.30;98930.62;123395;1102;64885;-75
2021/03/11 06:59:59;;;;;;;67.90;42.87;;;;;;;-0.74;63.64;98928.59;123801;1102;64903;-76
2021/03/11 07:02:27;;;;;;;67.25;41.40;;;;;;;-0.67;63.04;98922.34;123821;1102;64835;-75
2021/03/11 07:04:55;;;;;;;68.27;44.03;;;;;;;-0.58;62.71;98924.77;123474;1102;65301;-76
2021/03/11 07:07:24;;;;;;;66.37;41.30;;;;;;;-0.53;62.74;98911.55;123413;1102;64937;-77
2021/03/11 07:09:54;;;;;;;76.43;46.83;;;;;;;-0.49;63.17;98911.44;123449;1102;64895;-76
2021/03/11 07:12:21;;;;;;;75.70;46.83;;;;;;;-0.44;62.04;98908.73;123368;1102;64889;-76
2021/03/11 07:14:49;;;;;;;67.83;43.77;;;;;;;-0.37;62.00;98912.04;123357;1102;64908;-77
2021/03/11 07:17:19;;;;;;;70.80;42.57;;;;;;;-0.34;62.71;98910.23;123355;1102;64982;-76
2021/03/11 07:20:08;;;;;;;77.03;45.27;;;;;;;-0.23;62.11;98908.20;123420;1102;65014;-76
2021/03/11 07:22:36;;;;;;;76.17;45.13;;;;;;;-0.11;61.42;98900.92;123367;1102;65011;-77
2021/03/11 07:25:04;;;;;;;75.03;46.67;;;;;;;-0.06;62.39;98906.91;123506;1102;64942;-82
2021/03/11 07:27:40;;;;;;;78.60;48.53;;;;;;;0.03;61.11;98893.59;123567;1105;64969;-84
2021/03/11 07:30:08;;;;;;;67.47;42.50;;;;;;;0.12;61.56;98895.95;123636;1102;64901;-85
2021/03/11 07:32:35;;;;;;;77.00;43.27;;;;;;;0.20;61.16;98888.75;123653;1101;64905;-84
2021/03/11 07:35:05;;;;;;;69.30;43.90;;;;;;;0.26;61.31;98892.11;123576;1102;65224;-84
2021/03/11 07:37:33;;;;;;;62.33;41.35;;;;;;;0.33;60.67;98884.03;123575;1102;64889;-85
2021/03/11 07:40:01;;;;;;;65.30;39.35;;;;;;;0.40;60.61;98887.37;123617;1102;65121;-77
2021/03/11 07:42:28;;;;;;;61.07;41.80;;;;;;;0.49;60.96;98887.09;123453;1102;64963;-76
2021/03/11 07:44:56;;;;;;;67.00;41.40;;;;;;;0.55;60.32;98884.29;123407;1105;64892;-76
2021/03/11 07:47:22;;;;;;;59.40;39.80;;;;;;;0.59;60.15;98882.46;123420;1102;64889;-76
2021/03/11 07:49:49;;;;;;;66.90;40.87;;;;;;;0.64;60.00;98884.05;123395;1102;65020;-76
2021/03/11 07:52:16;;;;;;;61.60;40.00;;;;;;;0.73;59.73;98892.55;123359;1102;64924;-76
2021/03/11 07:54:43;;;;;;;60.50;40.33;;;;;;;0.79;59.40;98895.87;123378;1102;64946;-76
2021/03/11 07:57:09;;;;;;;68.23;41.70;;;;;;;0.79;59.16;98882.75;123385;1102;64937;-75
2021/03/11 07:59:44;;;;;;;60.00;41.37;;;;;;;0.81;59.62;98887.94;123414;1102;64920;-76
2021/03/11 08:02:16;;;;;;;63.40;42.40;;;;;;;0.86;60.04;98875.55;123434;1102;64947;-76
2021/03/11 08:04:44;;;;;;;62.23;38.77;;;;;;;0.94;59.23;98870.08;123401;1105;64841;-77
2021/03/11 08:07:19;;;;;;;61.60;41.20;;;;;;;0.97;59.68;98867.35;123539;1102;65023;-76
2021/03/11 08:09:52;;;;;;;61.13;40.80;;;;;;;1.12;59.79;98860.80;123423;1102;64921;-75
2021/03/11 08:12:25;;;;;;;67.10;42.30;;;;;;;1.30;59.40;98853.20;123815;1102;65017;-76
2021/03/11 08:14:52;;;;;;;68.50;41.83;;;;;;;1.45;59.50;98850.97;123365;1102;64934;-78
2021/03/11 08:17:51;;;;;;;65.77;42.17;;;;;;;1.56;58.39;98837.52;123772;1102;65078;-76
2021/03/11 08:20:20;;;;;;;60.47;41.63;;;;;;;1.66;58.53;98836.28;123340;1102;64936;-78
2021/03/11 08:25:34;;;;;;;63.33;41.10;;;;;;;1.87;57.91;98819.81;123786;1102;64927;-75
2021/03/11 08:28:02;;;;;;;60.57;41.07;;;;;;;2.11;58.67;98819.87;123375;1102;64940;-76
2021/03/11 08:30:38;;;;;;;68.20;41.77;;;;;;;2.38;58.08;98818.02;123805;1102;65052;-77
2021/03/11 08:33:11;;;;;;;60.60;40.03;;;;;;;2.58;57.19;98804.10;123427;1102;65052;-76
2021/03/11 08:35:46;;;;;;;58.07;39.60;;;;;;;2.78;57.55;98795.47;123795;1102;64914;-75
2021/03/11 08:38:25;;;;;;;60.67;40.40;;;;;;;2.99;57.46;98789.36;123369;1102;64912;-75
2021/03/11 08:40:51;;;;;;;62.58;39.78;;;;;;;3.19;56.68;98791.21;123787;1102;64902;-76
2021/03/11 08:43:40;;;;;;;62.77;42.20;;;;;;;3.35;57.02;98780.91;123336;1102;64834;-76
2021/03/11 08:46:19;;;;;;;60.37;40.53;;;;;;;3.52;56.14;98773.15;123808;1102;64956;-75
2021/03/11 08:48:47;;;;;;;64.97;42.77;;;;;;;3.67;56.35;98770.80;123743;1102;64910;-76
2021/03/11 08:51:22;;;;;;;61.20;41.07;;;;;;;3.79;56.27;98765.02;123769;1102;64886;-76
2021/03/11 08:53:53;;;;;;;56.13;36.70;;;;;;;3.96;55.49;98757.22;123400;1102;64844;-76
2021/03/11 08:56:19;;;;;;;54.17;36.63;;;;;;;4.13;55.35;98761.77;123815;1102;64966;-74
2021/03/11 08:59:07;;;;;;;49.23;34.70;;;;;;;4.31;54.87;98757.41;123804;1102;64965;-76
2021/03/11 09:01:33;;;;;;;48.00;33.40;;;;;;;4.48;54.52;98758.45;123779;1102;64886;-76
2021/03/11 09:04:01;;;;;;;50.83;34.67;;;;;;;4.58;53.76;98739.48;123381;1102;64899;-75
2021/03/11 09:06:52;;;;;;;50.50;34.60;;;;;;;4.69;52.87;98733.70;123761;1102;64832;-76
2021/03/11 09:09:45;;;;;;;54.40;35.60;;;;;;;4.73;53.59;98729.97;123795;1102;65429;-76
2021/03/11 09:12:15;;;;;;;49.90;35.13;;;;;;;4.90;52.71;98729.18;123818;1102;64911;-76
2021/03/11 09:14:42;;;;;;;;;;;;;;;4.93;52.74;98736.95;123368;1102;65320;-76
2021/03/11 09:17:12;;;;;;;47.23;34.27;;;;;;;5.02;52.11;98719.80;123433;1102;64889;-75
2021/03/11 09:19:50;;;;;;;48.17;32.20;;;;;;;5.10;51.61;98720.27;123818;1102;64937;-76
2021/03/11 09:22:29;;;;;;;48.33;34.87;;;;;;;5.16;52.04;98711.19;123780;1102;65135;-76
2021/03/11 09:25:18;;;;;;;52.47;34.63;;;;;;;5.33;51.61;98708.57;123363;1102;64895;-75
2021/03/11 09:27:54;;;;;;;49.07;34.77;;;;;;;5.44;51.67;98705.38;123382;1102;64937;-76
2021/03/11 09:30:26;;;;;;;44.70;33.13;;;;;;;5.57;51.53;98706.47;123433;1102;64967;-76
2021/03/11 09:32:53;;;;;;;44.40;32.53;;;;;;;5.64;49.89;98686.72;123422;1102;64895;-76
2021/03/11 09:35:23;;;;;;;46.60;33.37;;;;;;;5.72;50.83;98676.60;123339;1102;64924;-76
2021/03/11 09:37:51;;;;;;;;;;;;;;;5.90;51.17;98676.58;123790;1102;65308;-76
2021/03/11 09:40:19;;;;;;;45.57;32.67;;;;;;;6.09;50.81;98666.75;123426;1102;64941;-76
2021/03/11 09:43:05;;;;;;;42.63;29.57;;;;;;;6.27;50.92;98645.53;123370;1102;64918;-76
2021/03/11 09:45:47;;;;;;;39.67;29.80;;;;;;;6.54;51.08;98633.39;123776;1102;64911;-76
2021/03/11 09:48:17;;;;;;;41.97;29.07;;;;;;;6.78;49.92;98628.48;123761;1102;65004;-75
2021/03/11 09:51:01;;;;;;;36.05;26.17;;;;;;;6.99;50.41;98612.30;123443;1102;64867;-76
2021/03/11 09:53:35;;;;;;;33.93;23.63;;;;;;;7.26;49.91;98613.30;123394;1102;64882;-76
2021/03/11 09:56:01;;;;;;;28.17;18.97;;;;;;;7.47;49.27;98605.86;123786;1102;64889;-76
2021/03/11 09:58:28;;;;;;;30.70;20.80;;;;;;;7.67;49.21;98598.52;123443;1102;65450;-75
2021/03/11 10:00:55;;;;;;;23.53;18.33;;;;;;;7.83;48.48;98591.30;123756;1102;64914;-76
2021/03/11 10:03:27;;;;;;;24.70;19.40;;;;;;;7.95;48.38;98581.72;123357;1105;64911;-76
2021/03/11 10:06:05;;;;;;;26.43;17.80;;;;;;;8.09;47.26;98580.87;123418;1102;64914;-75
2021/03/11 10:08:39;;;;;;;24.30;18.23;;;;;;;8.12;47.29;98578.86;123433;1101;64995;-75
2021/03/11 10:11:12;;;;;;;25.43;18.03;;;;;;;8.07;46.60;98570.33;123358;1102;64886;-75
2021/03/11 10:14:01;;;;;;;25.90;17.63;;;;;;;8.10;46.98;98566.63;123745;1102;64905;-76
2021/03/11 10:16:36;;;;;;;23.73;17.93;;;;;;;8.13;46.40;98567.28;123798;1102;64974;-75
2021/03/11 10:19:02;;;;;;;22.33;17.30;;;;;;;8.19;46.54;98568.72;123761;1102;64835;-76
2021/03/11 10:21:29;;;;;;;22.95;16.60;;;;;;;8.14;45.71;98562.85;123351;1102;64914;-76
2021/03/11 10:23:56;;;;;;;25.87;17.93;;;;;;;8.18;46.08;98553.72;123345;1102;65023;-76
2021/03/11 10:26:34;;;;;;;22.87;17.13;;;;;;;8.24;45.59;98550.70;123394;1102;65042;-75
2021/03/11 10:29:08;;;;;;;24.27;17.17;;;;;;;8.24;44.61;98539.20;123375;1102;64888;-76
2021/03/11 10:31:34;;;;;;;22.87;16.40;;;;;;;8.20;44.78;98537.71;123408;1102;64899;-77
2021/03/11 10:34:01;;;;;;;20.33;16.27;;;;;;;8.23;45.17;98541.01;123759;1102;64885;-76
2021/03/11 10:36:28;;;;;;;26.03;17.23;;;;;;;8.27;44.49;98539.03;123788;1102;64840;-77
2021/03/11 10:39:08;;;;;;;23.63;17.20;;;;;;;8.20;43.97;98530.59;123841;1102;65062;-76
2021/03/11 10:41:36;;;;;;;;;;;;;;;8.17;43.29;98521.98;123399;1102;65017;-76
2021/03/11 10:44:06;;;;;;;19.60;13.27;;;;;;;8.11;43.40;98512.63;123383;1102;64962;-77
2021/03/11 10:46:32;;;;;;;24.55;16.48;;;;;;;8.05;43.01;98515.66;123876;1102;64914;-79
2021/03/11 10:48:59;;;;;;;29.73;18.57;;;;;;;8.02;42.30;98506.09;123969;1102;64828;-81
2021/03/11 10:51:27;;;;;;;17.43;13.03;;;;;;;8.01;43.30;98506.20;123863;1102;65007;-81
2021/03/11 10:53:54;;;;;;;21.55;14.80;;;;;;;8.00;42.51;98499.17;123629;1102;65000;-83
2021/03/11 10:56:21;;;;;;;19.10;13.50;;;;;;;8.01;42.25;98500.89;123970;1102;64926;-81
2021/03/11 10:58:48;;;;;;;15.73;12.13;;;;;;;8.00;42.56;98494.71;123967;1102;64941;-84
2021/03/11 11:01:24;;;;;;;15.57;11.93;;;;;;;7.95;42.17;98494.16;123920;1102;64976;-82
2021/03/11 11:03:54;;;;;;;17.80;12.43;;;;;;;7.95;42.32;98490.66;123929;1102;64828;-86
2021/03/11 11:06:24;;;;;;;15.83;11.17;;;;;;;7.96;41.89;98487.91;124030;1102;64870;-83
2021/03/11 11:08:51;;;;;;;19.77;13.70;;;;;;;7.94;41.78;98500.42;123979;1102;65011;-76
2021/03/11 11:11:19;;;;;;;16.57;12.13;;;;;;;7.91;42.12;98488.20;123984;1102;64837;-86
2021/03/11 11:13:47;;;;;;;16.23;11.60;;;;;;;7.86;41.86;98482.34;123648;1102;64908;-79
2021/03/11 11:16:14;;;;;;;16.27;11.47;;;;;;;7.79;42.05;98475.71;123801;1102;64981;-79
2021/03/11 11:18:41;;;;;;;13.87;11.47;;;;;;;7.70;41.93;98481.62;123841;1102;64963;-79
2021/03/11 11:21:08;;;;;;;16.27;12.47;;;;;;;7.59;41.16;98476.16;123883;1102;64911;-78
2021/03/11 11:23:35;;;;;;;18.53;14.17;;;;;;;7.46;41.41;98479.56;123800;1102;64902;-81
2021/03/11 11:26:02;;;;;;;19.53;14.10;;;;;;;7.33;41.44;98478.63;123816;1102;64978;-79